Corpus Christi, TX

12:27 PM CST on January 26, 2015 (GMT -0600)
King Estates | Change Station
CLOSE
Current Station
Personal Weather Station
Location: Corpus Christi, TX
Elevation: 17 ft
Nearby Weather Stations

Elev 17 ft 27.65 °N, 97.41 °W | Updated 3 seconds ago

Mostly Cloudy
Mostly Cloudy
75.1 °F
Feels Like 77 °F
N
1.0
Wind Variable Wind from NE
Gusts 2.0 mph

Today
High -- | Low -- °F
--% Chance of Precip.
Yesterday
High -- | Low -- °F
Precip. -- in
7:18 AM 6:05 PM
Waxing Crescent, 45% visible
Pressure 30.28 in
Visibility 10.0 miles
Clouds Mostly Cloudy 25000 ft
Heat Index 77 °F
Dew Point 42 °F
Humidity 31%
Rainfall 0.00 in
Snow Depth Not available.
UV 3 out of 12
Pollen 7.40 out of 12
Air Quality Not available.
Flu Activity Not available.
METAR KNGP 261756Z 35004KT 10SM BKN250 19/03 A3028 RMK AO2 SLP254 T01940028 10194 20061 50000

More Conditions Fewer Conditions

Pressure 30.28 in
Visibility 10.0 miles
Clouds Mostly Cloudy 25000 ft
Heat Index 77 °F
Dew Point 42 °F
Humidity 31%
Rainfall 0.00 in
Snow Depth Not available.
UV 3 out of 12
Pollen 7.40 out of 12
Air Quality Not available.
Flu Activity Not available.
METAR KNGP 261756Z 35004KT 10SM BKN250 19/03 A3028 RMK AO2 SLP254 T01940028 10194 20061 50000

More Conditions Fewer Conditions

10-Day Weather Forecast

Almanac

Astronomy

Jan. 26, 2015 Rise Set
Actual Time
Civil Twilight
Nautical Twilight
Astronomical Twilight
Moon
Length of Visible Light
Length of Day
Tomorrow will be .
, % of the Moon is Illuminated

Today's Extremes

State Highs State Lows

Community

WunderPhotos

Upload Photos

1,790,308 photos uploaded!

WunderBlogs® & News

Nearby

Air Quality

  Air Quality AQ Index Pollutant
Not available.

Snow Depth

Station Depth Elevation

Earthquake Activity

City Distance Mag. Time & Date
Minimum magnitude displayed is 2.5.

Coastal Water Temperatures

Place Temperature

Nearby Weather Stations